Time;durP1;ratioP1;P1;durP2;ratioP2;P2;SDS_P1;SDS_P2;PMS_P1;PMS_P2;Temp;Humidity;BMP_temperature;BMP_pressure;BME280_temperature;BME280_humidity;BME280_pressure;Samples;Min_cycle;Max_cycle;Signal;HPM_P1;HPM_P2
2022/09/28 00:01:50;;;;;;;12.15;9.05;;;9.00;99.90;;;;;;5974947;24;20020;-88
2022/09/28 00:04:16;;;;;;;11.45;6.20;;;9.10;99.90;;;;;;5977542;23;20027;-89
2022/09/28 00:06:42;;;;;;;13.75;9.50;;;8.90;99.90;;;;;;5977232;24;20128;-89
2022/09/28 00:09:08;;;;;;;13.15;9.50;;;9.10;99.90;;;;;;5977515;24;20024;-89
2022/09/28 00:11:34;;;;;;;12.43;9.32;;;9.00;99.90;;;;;;5976591;24;20107;-89
2022/09/28 00:14:02;;;;;;;12.40;9.57;;;9.00;99.90;;;;;;5976577;24;20016;-89
2022/09/28 00:16:33;;;;;;;12.88;10.13;;;9.10;99.90;;;;;;5976954;24;20392;-89
2022/09/28 00:18:59;;;;;;;14.65;10.05;;;9.00;99.90;;;;;;5976550;24;20004;-89
2022/09/28 00:21:31;;;;;;;13.80;10.10;;;9.00;99.90;;;;;;5976459;24;20571;-89
2022/09/28 00:24:11;;;;;;;10.13;5.43;;;9.00;99.90;;;;;;5978558;23;20016;-89
2022/09/28 00:26:39;;;;;;;10.70;5.10;;;8.90;99.90;;;;;;5975600;24;20330;-89
2022/09/28 00:29:06;;;;;;;13.73;9.88;;;8.80;99.90;;;;;;5976543;24;20023;-89
2022/09/28 00:31:33;;;;;;;11.45;9.50;;;8.90;99.90;;;;;;5975634;24;20545;-90
2022/09/28 00:34:00;;;;;;;14.35;10.50;;;8.80;99.90;;;;;;5976213;24;20016;-89
2022/09/28 00:36:30;;;;;;;12.60;10.18;;;8.80;99.90;;;;;;5975605;24;20020;-89
2022/09/28 00:38:57;;;;;;;13.77;10.82;;;8.90;99.90;;;;;;5978080;23;20012;-89
2022/09/28 00:41:25;;;;;;;12.38;7.22;;;8.90;99.90;;;;;;5975255;24;20028;-89
2022/09/28 00:43:51;;;;;;;14.50;11.15;;;8.80;99.90;;;;;;5977736;23;20039;-89
2022/09/28 00:46:25;;;;;;;14.82;10.90;;;8.90;99.90;;;;;;5978037;23;20015;-89
2022/09/28 00:49:01;;;;;;;15.35;11.27;;;8.90;99.90;;;;;;5975520;24;20054;-89
2022/09/28 00:51:30;;;;;;;15.20;11.50;;;8.90;99.90;;;;;;5977284;23;20020;-90
2022/09/28 00:53:58;;;;;;;15.15;11.45;;;8.90;99.90;;;;;;5953865;24;20091;-88
2022/09/28 00:56:27;;;;;;;16.38;13.20;;;8.90;99.90;;;;;;5975319;24;20391;-89
2022/09/28 00:58:53;;;;;;;15.82;12.15;;;8.90;99.90;;;;;;5976918;23;20020;-89
2022/09/28 01:01:20;;;;;;;15.80;12.48;;;8.90;99.90;;;;;;5977619;23;20068;-89
2022/09/28 01:03:47;;;;;;;12.88;7.93;;;8.90;99.90;;;;;;5977458;23;20020;-89
2022/09/28 01:06:23;;;;;;;15.20;12.05;;;8.80;99.90;;;;;;5977209;24;20028;-89
2022/09/28 01:08:52;;;;;;;14.00;11.98;;;8.80;99.90;;;;;;5978071;23;20020;-89
2022/09/28 01:11:18;;;;;;;12.02;7.72;;;8.90;99.90;;;;;;5977984;24;20372;-89
2022/09/28 01:13:47;;;;;;;14.57;12.63;;;8.90;99.90;;;;;;5975629;24;20320;-89
2022/09/28 01:16:34;;;;;;;16.58;12.27;;;8.80;99.90;;;;;;5975632;24;20023;-89
2022/09/28 01:19:45;;;;;;;12.23;6.80;;;8.90;99.90;;;;;;5976755;24;20020;-90
2022/09/28 01:22:11;;;;;;;13.88;10.95;;;8.80;99.90;;;;;;5977544;23;20017;-89
2022/09/28 01:24:44;;;;;;;13.02;8.15;;;8.80;99.90;;;;;;5975928;24;20081;-89
2022/09/28 01:27:12;;;;;;;14.55;12.07;;;8.80;99.90;;;;;;5976605;24;20039;-90
2022/09/28 01:30:03;;;;;;;13.55;8.55;;;8.80;99.90;;;;;;5975578;24;20016;-89
2022/09/28 01:32:47;;;;;;;13.80;8.63;;;8.80;99.90;;;;;;5975573;24;20031;-89
2022/09/28 01:35:19;;;;;;;14.30;11.57;;;8.70;99.90;;;;;;5976089;24;20047;-89
2022/09/28 01:38:08;;;;;;;14.95;12.43;;;8.70;99.90;;;;;;5975591;24;20449;-90
2022/09/28 01:40:35;;;;;;;18.10;13.43;;;8.70;99.90;;;;;;5975173;24;20026;-90
2022/09/28 01:43:18;;;;;;;16.45;13.43;;;8.70;99.90;;;;;;5977991;23;20380;-90
2022/09/28 01:45:51;;;;;;;15.80;12.82;;;8.80;99.90;;;;;;5974683;24;20063;-89
2022/09/28 01:48:27;;;;;;;17.33;9.73;;;8.60;99.90;;;;;;5976471;24;20390;-89
2022/09/28 01:50:58;;;;;;;20.23;13.77;;;8.60;99.90;;;;;;5974840;24;20077;-89
2022/09/28 01:53:43;;;;;;;11.75;7.47;;;8.50;99.90;;;;;;5976178;24;20023;-90
2022/09/28 01:56:18;;;;;;;18.83;14.48;;;8.40;99.90;;;;;;5973572;24;20391;-88
2022/09/28 01:59:08;;;;;;;17.38;14.27;;;8.30;99.90;;;;;;5950921;24;20355;-90
2022/09/28 02:01:47;;;;;;;19.27;15.05;;;8.30;99.90;;;;;;5974885;24;20099;-90
2022/09/28 02:04:21;;;;;;;17.80;14.65;;;8.30;99.90;;;;;;5952154;24;20024;-90
2022/09/28 02:06:56;;;;;;;14.75;8.93;;;8.30;99.90;;;;;;5977368;23;20022;-90
2022/09/28 02:09:33;;;;;;;14.23;8.48;;;8.20;99.90;;;;;;5951747;24;20024;-90
2022/09/28 02:12:06;;;;;;;15.23;7.97;;;8.20;99.90;;;;;;5976559;23;20434;-90
2022/09/28 02:14:33;;;;;;;17.38;14.73;;;8.20;99.90;;;;;;5976638;23;20016;-90
2022/09/28 02:17:00;;;;;;;19.73;16.17;;;8.20;99.90;;;;;;5975174;24;20016;-90
2022/09/28 02:19:27;;;;;;;17.48;14.93;;;8.30;99.90;;;;;;5977422;23;20012;-89
2022/09/28 02:22:02;;;;;;;21.60;16.33;;;8.40;99.90;;;;;;5975084;24;20020;-89
2022/09/28 02:24:50;;;;;;;19.58;15.90;;;8.40;99.90;;;;;;5977538;24;20012;-90
2022/09/28 02:27:47;;;;;;;20.55;16.48;;;8.50;99.90;;;;;;5975117;24;20152;-89
2022/09/28 02:30:13;;;;;;;14.45;9.30;;;8.50;99.90;;;;;;5977654;23;20019;-90
2022/09/28 02:32:43;;;;;;;13.60;6.90;;;8.50;99.90;;;;;;5976657;24;20450;-90
2022/09/28 02:35:16;;;;;;;14.73;7.47;;;8.50;99.90;;;;;;5975405;24;20076;-89
2022/09/28 02:37:43;;;;;;;19.42;15.07;;;8.40;99.90;;;;;;5975561;24;20020;-89
2022/09/28 02:40:18;;;;;;;18.80;15.02;;;8.50;99.90;;;;;;5978065;23;20076;-91
2022/09/28 02:42:58;;;;;;;19.48;16.27;;;8.50;99.90;;;;;;5975376;24;20012;-90
2022/09/28 02:45:42;;;;;;;15.25;10.07;;;8.60;99.90;;;;;;5977792;23;20107;-90
2022/09/28 02:48:25;;;;;;;15.90;9.38;;;8.50;99.90;;;;;;5976860;24;20016;-90
2022/09/28 02:51:10;;;;;;;20.55;16.13;;;8.40;99.90;;;;;;5976879;24;20067;-89
2022/09/28 02:54:13;;;;;;;25.40;19.08;;;8.50;99.90;;;;;;5951620;24;20024;-89
2022/09/28 02:56:56;;;;;;;16.92;11.07;;;8.50;99.90;;;;;;5971943;24;20016;-89
2022/09/28 02:59:28;;;;;;;22.55;16.90;;;8.40;99.90;;;;;;5974154;24;20045;-90
2022/09/28 03:02:05;;;;;;;19.52;16.33;;;8.60;99.90;;;;;;5974513;24;20095;-90
2022/09/28 03:05:01;;;;;;;20.73;17.02;;;8.60;99.90;;;;;;5976391;23;20027;-89
2022/09/28 03:07:32;;;;;;;21.83;18.70;;;8.60;99.90;;;;;;5951889;24;20028;-89
2022/09/28 03:10:02;;;;;;;;;;;8.60;99.90;;;;;;5977484;23;20023;-90
2022/09/28 03:12:28;;;;;;;33.35;23.60;;;8.60;99.90;;;;;;5975338;23;19948;-89
2022/09/28 03:15:21;;;;;;;24.45;13.98;;;8.60;99.90;;;;;;5974733;23;20428;-89
2022/09/28 03:17:46;;;;;;;27.60;15.95;;;8.50;99.90;;;;;;5975920;23;20111;-89
2022/09/28 03:20:12;;;;;;;39.25;25.33;;;8.50;99.90;;;;;;5975103;24;20012;-89
2022/09/28 03:22:38;;;;;;;34.92;25.20;;;8.60;99.90;;;;;;5977017;23;20371;-89
2022/09/28 03:25:06;;;;;;;25.88;14.30;;;8.60;99.90;;;;;;5976962;24;20032;-89
2022/09/28 03:27:32;;;;;;;37.40;26.20;;;8.50;99.90;;;;;;5975729;23;20087;-89
2022/09/28 03:29:57;;;;;;;34.03;25.38;;;8.60;99.90;;;;;;5975632;23;20046;-90
2022/09/28 03:32:23;;;;;;;37.38;26.73;;;8.60;99.90;;;;;;5951933;24;20387;-89
2022/09/28 03:34:49;;;;;;;36.70;25.35;;;8.60;99.90;;;;;;5975041;24;20020;-90
2022/09/28 03:37:14;;;;;;;35.95;25.58;;;8.60;99.90;;;;;;5978088;24;20016;-89
2022/09/28 03:39:40;;;;;;;34.20;24.50;;;8.60;99.90;;;;;;5978330;24;20343;-89
2022/09/28 03:42:06;;;;;;;38.50;27.15;;;8.60;99.90;;;;;;5975323;24;20091;-90
2022/09/28 03:44:31;;;;;;;28.73;13.95;;;8.60;99.90;;;;;;5975934;24;20474;-90
2022/09/28 03:46:57;;;;;;;38.45;23.83;;;8.60;99.90;;;;;;5976863;24;20475;-90
2022/09/28 03:49:23;;;;;;;32.80;14.82;;;8.60;99.90;;;;;;5976178;24;20016;-90
2022/09/28 03:51:48;;;;;;;28.45;14.25;;;8.60;99.90;;;;;;5976507;24;20043;-90
2022/09/28 03:54:14;;;;;;;33.67;23.80;;;8.50;99.90;;;;;;5976836;24;20019;-90
2022/09/28 03:56:40;;;;;;;37.35;23.67;;;8.50;99.90;;;;;;5978384;24;20016;-91
2022/09/28 03:59:05;;;;;;;38.67;24.50;;;8.50;99.90;;;;;;5954156;24;20320;-90
2022/09/28 04:01:31;;;;;;;41.47;24.75;;;8.60;99.90;;;;;;5978155;24;20023;-90
2022/09/28 04:03:57;;;;;;;44.45;25.27;;;8.50;99.90;;;;;;5976048;24;20035;-89
2022/09/28 04:06:26;;;;;;;35.58;25.38;;;8.50;99.90;;;;;;5976405;24;20017;-89
2022/09/28 04:08:51;;;;;;;22.60;13.07;;;8.60;99.90;;;;;;5976726;24;20063;-90
2022/09/28 04:11:17;;;;;;;35.92;24.13;;;8.50;99.90;;;;;;5976486;24;20016;-90
2022/09/28 04:13:50;;;;;;;41.40;25.90;;;8.50;99.90;;;;;;5977232;24;20030;-90
2022/09/28 04:16:17;;;;;;;42.95;26.15;;;8.50;99.90;;;;;;5976632;24;20071;-90
2022/09/28 04:18:43;;;;;;;122.15;34.08;;;8.50;99.90;;;;;;5978151;23;20023;-91
2022/09/28 04:21:14;;;;;;;42.13;26.45;;;8.50;99.90;;;;;;5978144;23;20020;-89
2022/09/28 04:23:40;;;;;;;;;;;8.50;99.90;;;;;;5977334;24;20020;-90
2022/09/28 04:26:10;;;;;;;40.20;17.38;;;8.40;99.90;;;;;;5999093;23;19914;-89
2022/09/28 04:31:23;;;;;;;30.52;15.45;;;8.40;99.90;;;;;;5976754;24;20028;-90
2022/09/28 04:33:49;;;;;;;35.60;17.88;;;8.40;99.90;;;;;;5978387;23;20016;-89
2022/09/28 04:36:14;;;;;;;169.25;37.38;;;8.40;99.90;;;;;;5976702;24;20470;-90
2022/09/28 04:38:40;;;;;;;45.65;20.83;;;8.50;99.90;;;;;;5975747;24;20351;-90
2022/09/28 04:41:06;;;;;;;58.53;26.85;;;8.40;99.90;;;;;;5978227;23;20459;-91
2022/09/28 04:43:32;;;;;;;71.28;27.67;;;8.50;99.90;;;;;;5976301;24;20019;-89
2022/09/28 04:45:59;;;;;;;46.22;26.05;;;8.40;99.90;;;;;;5978557;24;20443;-89
2022/09/28 04:48:25;;;;;;;52.78;16.88;;;8.50;99.90;;;;;;5975968;24;20020;-90
2022/09/28 04:50:55;;;;;;;33.05;15.68;;;8.30;99.90;;;;;;5953329;24;20024;-90
2022/09/28 04:53:21;;;;;;;41.75;22.15;;;8.30;99.90;;;;;;5975949;24;20091;-90
2022/09/28 04:56:07;;;;;;;50.55;22.40;;;8.40;99.90;;;;;;5974752;24;20047;-90
2022/09/28 04:58:34;;;;;;;100.53;24.67;;;8.40;99.90;;;;;;5977423;23;20138;-89
2022/09/28 05:01:02;;;;;;;171.00;30.08;;;8.40;99.90;;;;;;5975642;24;20502;-90
2022/09/28 05:03:28;;;;;;;25.55;12.63;;;8.30;99.90;;;;;;5953497;24;20126;-90
2022/09/28 05:05:54;;;;;;;31.92;13.45;;;8.30;99.90;;;;;;5977654;23;20060;-90
2022/09/28 05:08:20;;;;;;;42.60;22.20;;;8.20;99.90;;;;;;5975457;24;20099;-90
2022/09/28 05:10:45;;;;;;;53.00;22.98;;;8.30;99.90;;;;;;5977433;23;20020;-90
2022/09/28 05:13:12;;;;;;;21.08;12.13;;;8.20;99.90;;;;;;5953424;24;20020;-87
2022/09/28 05:15:39;;;;;;;262.65;35.40;;;8.20;99.90;;;;;;5973549;24;20059;-90
2022/09/28 05:18:06;;;;;;;168.50;23.52;;;8.20;99.90;;;;;;5978072;23;20020;-90
2022/09/28 05:20:33;;;;;;;66.53;24.60;;;8.10;99.90;;;;;;5977121;23;20039;-90
2022/09/28 05:22:59;;;;;;;196.65;34.42;;;8.10;99.90;;;;;;5977011;23;20047;-89
2022/09/28 05:25:25;;;;;;;124.10;28.20;;;8.20;99.90;;;;;;5975008;24;20012;-89
2022/09/28 05:27:56;;;;;;;108.88;26.88;;;8.20;99.90;;;;;;5975380;24;20024;-90
2022/09/28 05:30:23;;;;;;;43.53;12.30;;;8.20;99.90;;;;;;5952875;24;20064;-90
2022/09/28 05:32:52;;;;;;;45.40;22.02;;;8.10;99.90;;;;;;5951317;24;20012;-90
2022/09/28 05:35:18;;;;;;;77.43;25.02;;;8.20;99.90;;;;;;5977353;23;20020;-92
2022/09/28 05:37:44;;;;;;;113.22;17.52;;;8.20;99.90;;;;;;5977105;24;20016;-92
2022/09/28 05:40:10;;;;;;;38.58;13.07;;;8.10;99.90;;;;;;5952880;24;20164;-92
2022/09/28 05:42:35;;;;;;;98.00;26.30;;;8.00;99.90;;;;;;5952399;24;20319;-91
2022/09/28 05:45:02;;;;;;;51.15;15.43;;;8.10;99.90;;;;;;5976109;24;20023;-90
2022/09/28 05:47:28;;;;;;;152.18;19.90;;;8.10;99.90;;;;;;5976641;24;20757;-89
2022/09/28 05:49:54;;;;;;;38.97;11.77;;;8.10;99.90;;;;;;5975912;24;20016;-90
2022/09/28 05:52:20;;;;;;;43.45;13.75;;;8.00;99.90;;;;;;5952832;24;20027;-90
2022/09/28 05:54:46;;;;;;;41.90;11.48;;;7.90;99.90;;;;;;5974873;24;20015;-91
2022/09/28 05:57:13;;;;;;;101.35;23.65;;;7.90;99.90;;;;;;5975947;24;20073;-91
2022/09/28 05:59:39;;;;;;;102.13;23.42;;;8.00;99.90;;;;;;5976684;23;20012;-92
2022/09/28 06:02:05;;;;;;;50.38;19.98;;;8.00;99.90;;;;;;5952729;24;20091;-91
2022/09/28 06:04:31;;;;;;;67.57;21.85;;;8.00;99.90;;;;;;5977079;23;20064;-90
2022/09/28 06:06:58;;;;;;;75.47;21.65;;;8.10;99.90;;;;;;5975504;24;20028;-91
2022/09/28 06:09:24;;;;;;;36.67;11.18;;;8.10;99.90;;;;;;5952250;24;20020;-91
2022/09/28 06:11:50;;;;;;;63.05;11.57;;;8.00;99.90;;;;;;5975640;24;20068;-92
2022/09/28 06:14:15;;;;;;;80.35;21.73;;;7.90;99.90;;;;;;5977862;23;20027;-92
2022/09/28 06:16:41;;;;;;;49.33;13.20;;;8.10;99.90;;;;;;5975744;24;20024;-90
2022/09/28 06:19:08;;;;;;;64.50;16.20;;;8.00;99.90;;;;;;5952620;24;20012;-91
2022/09/28 06:21:34;;;;;;;57.88;14.05;;;8.00;99.90;;;;;;5952204;24;20500;-90
2022/09/28 06:24:00;;;;;;;35.55;13.27;;;8.00;99.90;;;;;;5975611;24;20450;-91
2022/09/28 06:26:26;;;;;;;76.78;23.00;;;8.00;99.90;;;;;;5973772;24;20012;-90
2022/09/28 06:28:52;;;;;;;65.65;20.60;;;8.00;99.90;;;;;;5975850;24;20012;-91
2022/09/28 06:31:19;;;;;;;39.95;13.15;;;8.10;99.90;;;;;;5974869;24;20109;-90
2022/09/28 06:33:44;;;;;;;59.05;20.17;;;8.10;99.90;;;;;;5976171;24;20024;-91
2022/09/28 06:36:10;;;;;;;42.22;14.18;;;8.10;99.90;;;;;;5975922;24;20109;-90
2022/09/28 06:38:36;;;;;;;68.57;22.52;;;8.20;99.90;;;;;;5975157;24;20020;-91
2022/09/28 06:41:02;;;;;;;42.75;13.10;;;8.20;99.90;;;;;;5976078;24;20020;-91
2022/09/28 06:43:28;;;;;;;69.25;23.48;;;8.10;99.90;;;;;;5975347;24;20062;-89
2022/09/28 06:45:54;;;;;;;57.38;22.88;;;8.30;99.90;;;;;;5973276;24;20012;-90
2022/09/28 06:48:20;;;;;;;55.28;23.20;;;8.30;99.90;;;;;;5974091;24;20020;-90
2022/09/28 06:50:46;;;;;;;40.15;22.55;;;8.40;99.90;;;;;;5976031;23;20012;-91
2022/09/28 06:53:13;;;;;;;43.63;13.90;;;8.40;99.90;;;;;;5953419;24;20318;-91
2022/09/28 06:55:45;;;;;;;27.17;11.43;;;8.30;99.90;;;;;;5977059;23;20018;-91
2022/09/28 06:58:13;;;;;;;55.50;22.92;;;8.30;99.90;;;;;;5974990;24;20020;-91
2022/09/28 07:00:39;;;;;;;37.63;15.15;;;8.40;99.90;;;;;;5975591;24;20024;-90
2022/09/28 07:03:20;;;;;;;42.97;21.90;;;8.40;99.90;;;;;;5952776;24;20091;-90
2022/09/28 07:05:48;;;;;;;27.95;15.65;;;8.40;99.90;;;;;;5975021;24;20028;-89
2022/09/28 07:08:16;;;;;;;58.85;24.20;;;8.40;99.90;;;;;;5976624;24;20126;-90
2022/09/28 07:10:43;;;;;;;25.08;12.63;;;8.50;99.90;;;;;;5978344;23;20041;-92
2022/09/28 07:13:09;;;;;;;22.95;12.02;;;8.50;99.90;;;;;;5980023;24;20020;-91
2022/09/28 07:15:36;;;;;;;51.33;16.58;;;8.50;99.90;;;;;;5980753;24;20455;-90
2022/09/28 07:18:04;;;;;;;119.75;31.30;;;8.50;99.90;;;;;;5980727;24;20024;-90
2022/09/28 07:20:32;;;;;;;57.40;26.42;;;8.60;99.90;;;;;;5978379;24;20087;-90
2022/09/28 07:23:00;;;;;;;39.67;24.50;;;8.70;99.90;;;;;;5956717;24;20017;-89
2022/09/28 07:25:31;;;;;;;27.90;15.13;;;8.60;99.90;;;;;;5981665;24;20051;-91
2022/09/28 07:27:59;;;;;;;33.65;21.58;;;8.60;99.90;;;;;;5981443;23;20338;-90
2022/09/28 07:30:26;;;;;;;27.23;14.90;;;8.70;99.90;;;;;;5978916;24;20016;-90
2022/09/28 07:32:53;;;;;;;32.90;21.73;;;8.60;99.90;;;;;;5981498;23;20020;-91
2022/09/28 07:35:19;;;;;;;29.90;16.63;;;8.70;99.90;;;;;;5979344;23;20060;-90
2022/09/28 07:37:44;;;;;;;30.50;20.48;;;8.70;99.90;;;;;;5976449;24;20039;-91
2022/09/28 07:42:55;;;;;;;25.77;18.05;;;8.80;99.90;;;;;;5975271;24;20371;-90
2022/09/28 07:45:24;;;;;;;23.55;12.73;;;8.80;99.90;;;;;;5950995;24;20024;-90
2022/09/28 07:47:54;;;;;;;24.35;18.17;;;8.80;99.90;;;;;;5973335;24;20343;-89
2022/09/28 07:50:20;;;;;;;21.17;11.97;;;8.80;99.90;;;;;;5952263;24;20510;-91
2022/09/28 07:52:46;;;;;;;25.05;17.02;;;8.80;99.90;;;;;;5974323;24;20016;-91
2022/09/28 07:55:12;;;;;;;26.52;17.83;;;8.90;99.90;;;;;;5975298;24;20076;-93
2022/09/28 07:57:38;;;;;;;22.25;16.17;;;8.90;99.90;;;;;;5977026;24;20016;-91
2022/09/28 08:00:07;;;;;;;20.40;11.63;;;9.00;99.90;;;;;;5949458;24;20626;-90
2022/09/28 08:02:34;;;;;;;22.77;16.27;;;8.90;99.90;;;;;;5948787;24;20020;-88
2022/09/28 08:05:00;;;;;;;24.23;17.63;;;9.00;99.90;;;;;;5975674;23;20139;-92
2022/09/28 08:07:26;;;;;;;26.02;18.60;;;9.00;99.90;;;;;;5976984;23;20016;-91
2022/09/28 08:09:52;;;;;;;21.00;13.23;;;9.00;99.90;;;;;;5975169;24;20734;-91
2022/09/28 08:12:18;;;;;;;21.17;12.55;;;9.00;99.90;;;;;;5973028;24;20051;-91
2022/09/28 08:14:48;;;;;;;24.42;16.92;;;9.10;99.90;;;;;;5973967;24;20058;-92
2022/09/28 08:17:14;;;;;;;22.23;15.75;;;9.10;99.90;;;;;;5950896;24;20021;-92
2022/09/28 08:22:24;;;;;;;17.58;10.90;;;9.10;99.90;;;;;;5975710;24;20021;-92
2022/09/28 08:24:50;;;;;;;19.75;14.80;;;9.00;99.90;;;;;;5952792;24;20052;-92
2022/09/28 08:27:17;;;;;;;24.17;16.50;;;9.10;99.90;;;;;;5977364;24;20020;-92
2022/09/28 08:29:43;;;;;;;22.42;15.68;;;9.10;99.90;;;;;;5978044;24;20020;-90
2022/09/28 08:32:09;;;;;;;22.83;15.93;;;9.10;99.90;;;;;;5978886;24;20043;-91
2022/09/28 08:34:36;;;;;;;19.77;11.52;;;9.10;99.90;;;;;;5952942;24;20020;-91
2022/09/28 08:37:03;;;;;;;21.88;15.57;;;9.20;99.90;;;;;;5977114;24;20020;-91
2022/09/28 08:39:28;;;;;;;23.05;17.45;;;9.40;99.90;;;;;;5975354;24;20009;-91
2022/09/28 08:42:05;;;;;;;24.73;17.30;;;9.50;99.90;;;;;;5977273;24;20160;-91
2022/09/28 08:44:40;;;;;;;20.83;12.20;;;9.50;99.90;;;;;;5952852;24;20055;-91
2022/09/28 08:50:15;;;;;;;23.13;16.92;;;9.70;99.90;;;;;;5977955;24;20435;-91
2022/09/28 08:52:43;;;;;;;23.80;18.23;;;9.80;99.90;;;;;;5952071;24;20347;-89
2022/09/28 08:55:23;;;;;;;23.30;17.85;;;9.90;99.90;;;;;;5977154;23;20020;-88
2022/09/28 08:58:07;;;;;;;23.42;18.13;;;10.00;99.90;;;;;;5952669;24;20024;-90
2022/09/28 09:00:47;;;;;;;23.23;17.30;;;10.10;99.90;;;;;;5974045;24;20407;-89
2022/09/28 09:03:17;;;;;;;22.92;17.33;;;10.30;99.90;;;;;;5952011;24;20016;-89
2022/09/28 09:06:08;;;;;;;21.88;16.58;;;10.40;99.90;;;;;;5975135;24;20123;-89
2022/09/28 09:08:48;;;;;;;22.20;16.73;;;10.40;99.90;;;;;;5976600;23;20031;-89
2022/09/28 09:11:26;;;;;;;24.27;17.58;;;10.40;99.90;;;;;;5977067;23;20023;-89
2022/09/28 09:14:01;;;;;;;21.85;15.65;;;10.50;99.90;;;;;;5975100;24;20371;-90
2022/09/28 09:16:49;;;;;;;21.77;16.17;;;10.60;99.90;;;;;;5976404;23;20012;-89
2022/09/28 09:19:28;;;;;;;22.05;15.95;;;10.70;99.90;;;;;;5975971;24;20101;-90
2022/09/28 09:22:08;;;;;;;20.33;15.20;;;10.70;99.90;;;;;;5976904;23;20020;-89
2022/09/28 09:24:50;;;;;;;21.17;15.20;;;10.70;99.90;;;;;;5974335;24;20084;-89
2022/09/28 09:27:57;;;;;;;21.38;15.95;;;10.80;99.90;;;;;;5999291;23;20023;-88
2022/09/28 09:30:25;;;;;;;19.13;14.35;;;11.00;99.90;;;;;;5976254;23;20094;-88
2022/09/28 09:33:23;;;;;;;19.95;15.05;;;11.10;99.90;;;;;;5974361;24;20020;-88
2022/09/28 09:36:04;;;;;;;19.02;14.30;;;11.10;99.90;;;;;;5973291;24;20764;-91
2022/09/28 09:39:14;;;;;;;20.27;14.82;;;11.20;99.90;;;;;;5973352;24;20024;-90
2022/09/28 09:41:56;;;;;;;19.60;14.10;;;11.30;99.90;;;;;;5944998;24;20021;-91
2022/09/28 09:44:34;;;;;;;20.00;14.40;;;11.30;99.90;;;;;;5921723;24;20032;-90
2022/09/28 09:47:08;;;;;;;20.48;15.35;;;11.40;99.90;;;;;;5944689;24;20031;-90
2022/09/28 09:49:44;;;;;;;19.73;14.98;;;11.50;99.90;;;;;;5921800;24;20025;-89
2022/09/28 09:52:28;;;;;;;19.90;14.73;;;11.50;99.90;;;;;;5946189;24;20091;-88
2022/09/28 09:55:17;;;;;;;20.73;14.23;;;11.60;99.90;;;;;;5921940;24;20080;-87
2022/09/28 09:57:53;;;;;;;19.58;14.82;;;11.70;99.90;;;;;;5944121;24;20492;-89
2022/09/28 10:00:19;;;;;;;19.17;14.60;;;11.70;99.90;;;;;;5943081;24;20031;-88
2022/09/28 10:02:47;;;;;;;19.67;15.43;;;11.70;99.90;;;;;;5922043;24;20020;-89
2022/09/28 10:05:12;;;;;;;19.25;14.40;;;11.80;99.90;;;;;;5949023;24;20471;-89
2022/09/28 10:07:50;;;;;;;18.23;14.18;;;11.90;99.90;;;;;;5927499;24;20040;-89
2022/09/28 10:10:37;;;;;;;16.98;13.52;;;11.90;99.90;;;;;;5921935;24;20021;-88
2022/09/28 10:13:03;;;;;;;16.05;11.63;;;12.10;99.90;;;;;;5962333;24;20032;-90
2022/09/28 10:15:34;;;;;;;15.05;11.13;;;12.10;99.90;;;;;;5975161;24;20024;-90
2022/09/28 10:18:05;;;;;;;15.50;11.13;;;12.10;99.90;;;;;;5975329;24;20017;-90
2022/09/28 10:20:34;;;;;;;15.35;10.77;;;12.20;99.90;;;;;;5973005;24;20286;-89
2022/09/28 10:23:02;;;;;;;13.98;9.80;;;12.10;99.90;;;;;;5973707;24;20051;-90
2022/09/28 10:25:32;;;;;;;12.77;8.52;;;12.10;99.90;;;;;;5973987;24;20084;-90
2022/09/28 10:28:00;;;;;;;11.90;8.05;;;12.00;99.90;;;;;;5972586;24;20060;-90
2022/09/28 10:30:27;;;;;;;11.35;6.65;;;12.10;99.90;;;;;;5973756;24;20400;-90
2022/09/28 10:32:58;;;;;;;11.20;7.25;;;12.10;99.90;;;;;;5973884;24;20023;-90
2022/09/28 10:35:39;;;;;;;9.95;5.70;;;12.10;99.90;;;;;;5975277;23;20016;-90
2022/09/28 10:38:17;;;;;;;11.23;7.40;;;12.20;99.90;;;;;;5975731;23;20012;-91
2022/09/28 10:40:57;;;;;;;10.60;5.53;;;12.20;99.90;;;;;;5950646;24;20028;-91
2022/09/28 10:43:37;;;;;;;8.32;4.78;;;12.30;99.90;;;;;;5973922;24;20011;-91
2022/09/28 10:46:12;;;;;;;9.20;5.38;;;12.50;99.90;;;;;;5949535;24;20016;-91
2022/09/28 10:48:55;;;;;;;7.85;4.53;;;12.50;99.90;;;;;;5975524;23;20046;-91
2022/09/28 10:51:42;;;;;;;9.10;5.15;;;12.60;99.90;;;;;;5987089;24;20024;-90
2022/09/28 10:54:15;;;;;;;8.20;3.90;;;12.70;99.90;;;;;;5973938;24;20024;-90
2022/09/28 10:56:41;;;;;;;8.32;4.68;;;12.80;99.90;;;;;;5972849;23;20017;-90
2022/09/28 10:59:22;;;;;;;8.65;5.25;;;12.80;99.90;;;;;;5970383;24;20064;-90
2022/09/28 11:01:55;;;;;;;8.50;5.00;;;12.80;99.90;;;;;;5970161;24;20069;-92
2022/09/28 11:04:23;;;;;;;6.35;3.80;;;12.80;99.90;;;;;;5971305;24;20080;-90
2022/09/28 11:06:50;;;;;;;6.03;2.78;;;12.80;99.90;;;;;;5971440;24;20107;-91
2022/09/28 11:09:30;;;;;;;6.13;2.63;;;12.80;99.90;;;;;;5975146;23;20095;-90
2022/09/28 11:12:03;;;;;;;5.03;2.37;;;12.80;99.90;;;;;;5973390;24;20024;-90
2022/09/28 11:14:37;;;;;;;5.68;2.45;;;12.80;99.90;;;;;;5973455;24;20020;-90
2022/09/28 11:17:25;;;;;;;5.45;2.45;;;12.90;99.90;;;;;;5974502;24;20442;-90
2022/09/28 11:19:52;;;;;;;5.85;2.35;;;13.00;99.90;;;;;;5973490;24;20684;-89
2022/09/28 11:22:31;;;;;;;7.80;2.58;;;13.10;99.90;;;;;;5974145;24;20020;-89
2022/09/28 11:25:15;;;;;;;5.45;2.92;;;13.10;99.90;;;;;;5973228;24;20047;-90
2022/09/28 11:27:41;;;;;;;5.85;2.80;;;13.20;99.90;;;;;;5976284;24;20082;-91
2022/09/28 11:30:44;;;;;;;5.50;2.70;;;13.20;99.90;;;;;;5974822;24;20016;-90
2022/09/28 11:33:19;;;;;;;5.57;2.42;;;13.30;99.90;;;;;;5974656;24;20032;-93
2022/09/28 11:36:03;;;;;;;5.00;2.13;;;13.30;99.90;;;;;;5951291;24;20071;-92
2022/09/28 11:38:39;;;;;;;4.55;2.28;;;13.30;99.90;;;;;;5973980;24;20017;-90
2022/09/28 11:41:32;;;;;;;5.60;2.08;;;13.40;99.90;;;;;;5973583;24;20072;-91
2022/09/28 11:44:29;;;;;;;5.82;2.60;;;13.40;99.90;;;;;;5974473;24;20020;-91
2022/09/28 11:47:16;;;;;;;5.60;2.50;;;13.50;99.90;;;;;;5973494;24;20040;-93
2022/09/28 11:49:51;;;;;;;4.00;2.10;;;13.50;99.90;;;;;;5972631;24;20068;-90
2022/09/28 11:52:29;;;;;;;6.15;2.28;;;13.50;99.90;;;;;;5973997;23;20016;-91
2022/09/28 11:55:32;;;;;;;5.65;2.30;;;13.50;99.90;;;;;;5974514;23;20016;-89
2022/09/28 11:58:24;;;;;;;7.10;2.70;;;13.60;99.90;;;;;;5961642;24;20020;-91
2022/09/28 12:00:58;;;;;;;6.05;2.63;;;13.60;99.90;;;;;;5975529;24;20016;-89
2022/09/28 12:03:56;;;;;;;7.45;2.53;;;13.60;99.90;;;;;;5976245;24;20490;-89
2022/09/28 12:06:30;;;;;;;4.70;2.00;;;13.60;99.90;;;;;;5975619;23;20022;-88
2022/09/28 12:09:09;;;;;;;3.33;1.70;;;13.60;99.90;;;;;;5972255;23;20017;-88
2022/09/28 12:11:42;;;;;;;4.90;1.70;;;13.70;99.90;;;;;;5976989;23;20404;-87
2022/09/28 12:14:18;;;;;;;3.28;1.50;;;13.80;99.90;;;;;;5975527;24;20024;-87
2022/09/28 12:16:52;;;;;;;4.60;1.73;;;13.80;99.90;;;;;;5976516;23;20033;-88
2022/09/28 12:19:28;;;;;;;4.18;1.65;;;13.90;99.90;;;;;;5975357;24;20079;-88
2022/09/28 12:21:58;;;;;;;4.32;1.60;;;13.90;99.90;;;;;;5974170;24;20016;-87
2022/09/28 12:24:29;;;;;;;4.70;1.60;;;13.90;99.90;;;;;;5974506;24;20423;-88
2022/09/28 12:27:22;;;;;;;3.67;1.30;;;14.00;99.90;;;;;;5974292;24;20024;-87
2022/09/28 12:30:18;;;;;;;3.85;1.55;;;14.00;99.90;;;;;;5974986;24;20068;-87
2022/09/28 12:32:57;;;;;;;2.95;1.30;;;14.00;99.90;;;;;;5975964;24;20084;-87
2022/09/28 12:35:31;;;;;;;3.78;1.33;;;14.00;99.90;;;;;;5975578;23;20455;-89
2022/09/28 12:38:30;;;;;;;3.30;1.27;;;14.10;99.90;;;;;;5972367;24;20024;-88
2022/09/28 12:41:15;;;;;;;7.45;1.40;;;14.10;99.90;;;;;;5973169;24;20012;-88
2022/09/28 12:44:18;;;;;;;4.15;1.20;;;14.20;99.90;;;;;;5973622;24;20386;-88
2022/09/28 12:47:13;;;;;;;3.17;1.10;;;14.20;99.90;;;;;;5973986;24;20458;-88
2022/09/28 12:49:55;;;;;;;3.50;1.20;;;14.20;99.90;;;;;;5956803;23;20465;-88
2022/09/28 12:52:48;;;;;;;2.78;1.00;;;14.20;99.90;;;;;;5975069;24;20050;-88
2022/09/28 12:55:38;;;;;;;2.40;1.20;;;14.10;99.90;;;;;;5974418;24;20059;-88
2022/09/28 12:58:25;;;;;;;3.67;1.00;;;14.10;99.90;;;;;;5977578;23;20308;-88
2022/09/28 13:01:28;;;;;;;3.42;0.98;;;14.10;99.90;;;;;;5976025;23;20024;-88
2022/09/28 13:04:28;;;;;;;2.97;0.95;;;14.10;99.90;;;;;;5974242;24;20273;-88
2022/09/28 13:07:05;;;;;;;3.53;0.90;;;14.20;99.90;;;;;;5973087;24;20462;-88
2022/09/28 13:09:54;;;;;;;4.05;0.77;;;14.20;99.90;;;;;;5974141;24;20461;-87
2022/09/28 13:12:46;;;;;;;2.22;0.90;;;14.20;99.90;;;;;;5974044;24;20129;-89
2022/09/28 13:15:30;;;;;;;2.58;0.80;;;14.20;99.90;;;;;;5974538;24;20016;-88
2022/09/28 13:17:56;;;;;;;3.53;0.90;;;14.30;99.90;;;;;;5974837;24;20459;-87
2022/09/28 13:20:34;;;;;;;2.22;0.95;;;14.40;99.90;;;;;;5973468;24;20020;-87